Aérodrome :
LOGIN :

S'inscrire | Disclaimer

   EN    FR    IT 

 










Légende :    VFR   VFR Marginal   IFR   IFR Intensif   IFR Très Intensif
Visi : 
Plafond : 
>= 8 km
>= 3000ft
5 à 8 km
1000 à 3000 ft
1500m à 5 km
500 à 1000 ft
800 à 1500m
200 à 500 ft
< 800m
< 200 ft
Symboles :   Orages  Brouillard  Fortes neiges  Fortes précipitations  Vent > 20 kt
SIGMETs :   Divers  Orages  Givrage  Turbulence  Onde Orograph.  Cendres Volcan.







- Altitude de l'aérodrome : 463 ft
- Code IATA : HME


DAUH - Oued Irara-Krim Belkacem

DERNIER METAR :
  • 210900Z 10004KT 8000 -RA BKN040 OVC100 22/17 Q1014

METARs EXPIRÉS :
  • 210830Z 11004KT 8000 -RA BKN040 OVC100 21/16 Q1015
  • 210800Z 09006KT 8000 -RA BKN040 OVC100 22/16 Q1015
  • 210730Z 08007KT 9999 BKN040 BKN100 22/06 Q1014
  • 210700Z 07007KT 9999 SCT040 23/02 Q1013
  • 210630Z 06006KT 9999 -RA SCT040 23/02 Q1013

TAF TAF DAUH
Valide du 21 à 06h jusqu'au 22 à 06h UTC


210500Z 2106/2206 06010KT 9999 SCT046 SCT100
PROB30
TEMPO 2106/2112 5000 -RA FEW040CB
Pas de NOTAMs connus pour ce terrain.



MET'MAP, la Météo Aéronautique d'un coup d'oeil ! - Copyright ORBIFLY Décembre 2007 - Disclaimer

ORBIFLY MET'MAP TEAM :

Programmation & Développement : Alexandra Zaïnal
Conception & Développement : Baudouin d'Aumeries
Co-Programmation & Développement : Marc-Olivier Méhu
Soutien technique & logistique : Manuel Goepfert

Contact : metmap@orbifly.com




SOURCES & CREDITS :

   NOAA